sensor_id;sensor_type;location;lat;lon;timestamp;temperature;humidity
49222;DHT22;35047;37.588;-122.048;2022-09-09T00:04:20;40.50;28.90
49222;DHT22;35047;37.588;-122.048;2022-09-09T00:09:18;40.30;28.70
49222;DHT22;35047;37.588;-122.048;2022-09-09T00:11:47;40.20;28.40
49222;DHT22;35047;37.588;-122.048;2022-09-09T00:14:37;40.10;28.50
49222;DHT22;35047;37.588;-122.048;2022-09-09T00:17:02;40.00;28.00
49222;DHT22;35047;37.588;-122.048;2022-09-09T00:19:33;40.00;28.30
49222;DHT22;35047;37.588;-122.048;2022-09-09T00:22:06;40.00;28.30
49222;DHT22;35047;37.588;-122.048;2022-09-09T00:27:11;39.70;28.00
49222;DHT22;35047;37.588;-122.048;2022-09-09T00:32:14;39.60;27.70
49222;DHT22;35047;37.588;-122.048;2022-09-09T00:35:16;39.60;27.70
49222;DHT22;35047;37.588;-122.048;2022-09-09T00:37:35;39.60;27.70
49222;DHT22;35047;37.588;-122.048;2022-09-09T00:40:02;39.60;27.70
49222;DHT22;35047;37.588;-122.048;2022-09-09T00:42:38;39.70;28.10
49222;DHT22;35047;37.588;-122.048;2022-09-09T00:47:51;39.90;27.40
49222;DHT22;35047;37.588;-122.048;2022-09-09T00:57:57;40.10;26.70
49222;DHT22;35047;37.588;-122.048;2022-09-09T01:00:24;40.00;27.10
49222;DHT22;35047;37.588;-122.048;2022-09-09T01:05:27;40.10;27.60
49222;DHT22;35047;37.588;-122.048;2022-09-09T01:07:57;40.20;28.00
49222;DHT22;35047;37.588;-122.048;2022-09-09T01:10:37;40.20;29.00
49222;DHT22;35047;37.588;-122.048;2022-09-09T01:13:09;40.10;30.90
49222;DHT22;35047;37.588;-122.048;2022-09-09T01:15:39;40.00;32.10
49222;DHT22;35047;37.588;-122.048;2022-09-09T01:18:08;40.00;32.80
49222;DHT22;35047;37.588;-122.048;2022-09-09T01:20:39;40.00;33.40
49222;DHT22;35047;37.588;-122.048;2022-09-09T01:28:30;39.70;35.00
49222;DHT22;35047;37.588;-122.048;2022-09-09T01:30:58;39.50;35.10
49222;DHT22;35047;37.588;-122.048;2022-09-09T01:33:24;39.30;35.70
49222;DHT22;35047;37.588;-122.048;2022-09-09T01:36:05;39.10;35.90
49222;DHT22;35047;37.588;-122.048;2022-09-09T01:38:33;39.00;36.10
49222;DHT22;35047;37.588;-122.048;2022-09-09T01:41:00;38.90;36.10
49222;DHT22;35047;37.588;-122.048;2022-09-09T01:43:27;38.70;36.40
49222;DHT22;35047;37.588;-122.048;2022-09-09T01:45:54;38.80;36.50
49222;DHT22;35047;37.588;-122.048;2022-09-09T01:48:22;38.60;36.50
49222;DHT22;35047;37.588;-122.048;2022-09-09T01:50:51;38.20;37.10
49222;DHT22;35047;37.588;-122.048;2022-09-09T01:53:19;38.00;37.80
49222;DHT22;35047;37.588;-122.048;2022-09-09T01:55:52;37.60;38.90
49222;DHT22;35047;37.588;-122.048;2022-09-09T02:03:31;36.90;39.90
49222;DHT22;35047;37.588;-122.048;2022-09-09T02:08:29;36.70;40.10
49222;DHT22;35047;37.588;-122.048;2022-09-09T02:11:05;36.60;40.50
49222;DHT22;35047;37.588;-122.048;2022-09-09T02:13:32;36.40;40.50
49222;DHT22;35047;37.588;-122.048;2022-09-09T02:16:08;36.20;40.30
49222;DHT22;35047;37.588;-122.048;2022-09-09T02:18:39;36.10;40.50
49222;DHT22;35047;37.588;-122.048;2022-09-09T02:21:06;36.00;40.60
49222;DHT22;35047;37.588;-122.048;2022-09-09T02:23:33;35.70;40.50
49222;DHT22;35047;37.588;-122.048;2022-09-09T02:26:01;35.60;41.80
49222;DHT22;35047;37.588;-122.048;2022-09-09T02:28:29;35.40;41.10
49222;DHT22;35047;37.588;-122.048;2022-09-09T02:30:57;35.20;41.60
49222;DHT22;35047;37.588;-122.048;2022-09-09T02:33:25;35.10;42.00
49222;DHT22;35047;37.588;-122.048;2022-09-09T02:35:52;35.00;43.30
49222;DHT22;35047;37.588;-122.048;2022-09-09T02:38:22;34.70;44.70
49222;DHT22;35047;37.588;-122.048;2022-09-09T02:40:51;34.40;46.00
49222;DHT22;35047;37.588;-122.048;2022-09-09T02:43:18;34.00;47.10
49222;DHT22;35047;37.588;-122.048;2022-09-09T02:45:49;33.80;47.40
49222;DHT22;35047;37.588;-122.048;2022-09-09T02:48:27;33.40;47.90
49222;DHT22;35047;37.588;-122.048;2022-09-09T02:53:43;32.90;49.50
49222;DHT22;35047;37.588;-122.048;2022-09-09T02:56:18;32.90;50.10
49222;DHT22;35047;37.588;-122.048;2022-09-09T02:58:47;32.90;50.40
49222;DHT22;35047;37.588;-122.048;2022-09-09T03:01:14;32.80;50.60
49222;DHT22;35047;37.588;-122.048;2022-09-09T03:03:41;32.80;51.00
49222;DHT22;35047;37.588;-122.048;2022-09-09T03:06:07;32.80;51.20
49222;DHT22;35047;37.588;-122.048;2022-09-09T03:08:35;32.60;51.10
49222;DHT22;35047;37.588;-122.048;2022-09-09T03:11:02;32.50;51.40
49222;DHT22;35047;37.588;-122.048;2022-09-09T03:13:29;32.40;51.50
49222;DHT22;35047;37.588;-122.048;2022-09-09T03:15:55;32.40;51.60
49222;DHT22;35047;37.588;-122.048;2022-09-09T03:18:22;32.20;52.60
49222;DHT22;35047;37.588;-122.048;2022-09-09T03:20:49;32.20;51.90
49222;DHT22;35047;37.588;-122.048;2022-09-09T03:23:17;32.10;52.10
49222;DHT22;35047;37.588;-122.048;2022-09-09T03:25:49;32.00;52.30
49222;DHT22;35047;37.588;-122.048;2022-09-09T03:28:15;31.80;52.40
49222;DHT22;35047;37.588;-122.048;2022-09-09T03:30:42;31.60;52.50
49222;DHT22;35047;37.588;-122.048;2022-09-09T03:33:09;31.50;52.90
49222;DHT22;35047;37.588;-122.048;2022-09-09T03:35:35;31.40;53.40
49222;DHT22;35047;37.588;-122.048;2022-09-09T03:38:02;31.30;53.80
49222;DHT22;35047;37.588;-122.048;2022-09-09T03:40:28;31.20;54.20
49222;DHT22;35047;37.588;-122.048;2022-09-09T03:42:54;31.10;54.30
49222;DHT22;35047;37.588;-122.048;2022-09-09T03:45:21;31.00;54.30
49222;DHT22;35047;37.588;-122.048;2022-09-09T03:47:47;31.00;54.60
49222;DHT22;35047;37.588;-122.048;2022-09-09T03:50:14;30.90;54.90
49222;DHT22;35047;37.588;-122.048;2022-09-09T03:52:40;30.80;54.80
49222;DHT22;35047;37.588;-122.048;2022-09-09T03:55:07;30.60;55.30
49222;DHT22;35047;37.588;-122.048;2022-09-09T03:57:34;30.60;55.90
49222;DHT22;35047;37.588;-122.048;2022-09-09T04:00:05;30.50;55.70
49222;DHT22;35047;37.588;-122.048;2022-09-09T04:02:32;30.40;55.50
49222;DHT22;35047;37.588;-122.048;2022-09-09T04:04:59;30.30;55.50
49222;DHT22;35047;37.588;-122.048;2022-09-09T04:07:25;30.20;55.80
49222;DHT22;35047;37.588;-122.048;2022-09-09T04:09:53;30.10;55.60
49222;DHT22;35047;37.588;-122.048;2022-09-09T04:12:20;30.10;55.40
49222;DHT22;35047;37.588;-122.048;2022-09-09T04:14:48;29.90;57.00
49222;DHT22;35047;37.588;-122.048;2022-09-09T04:17:14;29.80;57.70
49222;DHT22;35047;37.588;-122.048;2022-09-09T04:19:41;29.70;58.00
49222;DHT22;35047;37.588;-122.048;2022-09-09T04:22:07;29.60;58.40
49222;DHT22;35047;37.588;-122.048;2022-09-09T04:24:34;29.50;58.60
49222;DHT22;35047;37.588;-122.048;2022-09-09T04:27:00;29.50;58.60
49222;DHT22;35047;37.588;-122.048;2022-09-09T04:29:26;29.30;59.20
49222;DHT22;35047;37.588;-122.048;2022-09-09T04:31:53;29.30;59.00
49222;DHT22;35047;37.588;-122.048;2022-09-09T04:34:19;29.20;59.10
49222;DHT22;35047;37.588;-122.048;2022-09-09T04:36:46;29.10;59.80
49222;DHT22;35047;37.588;-122.048;2022-09-09T04:39:12;29.00;60.40
49222;DHT22;35047;37.588;-122.048;2022-09-09T04:41:40;28.90;60.70
49222;DHT22;35047;37.588;-122.048;2022-09-09T04:44:06;28.90;61.00
49222;DHT22;35047;37.588;-122.048;2022-09-09T04:46:32;28.80;61.30
49222;DHT22;35047;37.588;-122.048;2022-09-09T04:48:59;28.70;61.40
49222;DHT22;35047;37.588;-122.048;2022-09-09T04:51:26;28.70;61.30
49222;DHT22;35047;37.588;-122.048;2022-09-09T04:53:53;28.60;61.20
49222;DHT22;35047;37.588;-122.048;2022-09-09T04:56:19;28.60;61.60
49222;DHT22;35047;37.588;-122.048;2022-09-09T04:58:46;28.50;62.30
49222;DHT22;35047;37.588;-122.048;2022-09-09T05:01:15;28.40;62.60
49222;DHT22;35047;37.588;-122.048;2022-09-09T05:03:42;28.30;63.00
49222;DHT22;35047;37.588;-122.048;2022-09-09T05:06:12;28.20;62.90
49222;DHT22;35047;37.588;-122.048;2022-09-09T05:08:39;28.20;63.20
49222;DHT22;35047;37.588;-122.048;2022-09-09T05:11:15;28.10;63.30
49222;DHT22;35047;37.588;-122.048;2022-09-09T05:13:42;28.10;63.70
49222;DHT22;35047;37.588;-122.048;2022-09-09T05:16:09;27.90;64.40
49222;DHT22;35047;37.588;-122.048;2022-09-09T05:18:37;27.80;64.80
49222;DHT22;35047;37.588;-122.048;2022-09-09T05:21:03;27.80;65.20
49222;DHT22;35047;37.588;-122.048;2022-09-09T05:23:29;27.70;66.00
49222;DHT22;35047;37.588;-122.048;2022-09-09T05:25:56;27.60;66.10
49222;DHT22;35047;37.588;-122.048;2022-09-09T05:28:24;27.60;66.70
49222;DHT22;35047;37.588;-122.048;2022-09-09T05:31:09;27.50;67.50
49222;DHT22;35047;37.588;-122.048;2022-09-09T05:33:40;27.40;67.70
49222;DHT22;35047;37.588;-122.048;2022-09-09T05:36:09;27.40;67.80
49222;DHT22;35047;37.588;-122.048;2022-09-09T05:38:38;27.20;69.30
49222;DHT22;35047;37.588;-122.048;2022-09-09T05:41:06;27.10;69.40
49222;DHT22;35047;37.588;-122.048;2022-09-09T05:43:32;27.00;70.00
49222;DHT22;35047;37.588;-122.048;2022-09-09T05:46:05;26.90;70.60
49222;DHT22;35047;37.588;-122.048;2022-09-09T05:48:31;26.90;70.50
49222;DHT22;35047;37.588;-122.048;2022-09-09T05:51:00;26.80;70.60
49222;DHT22;35047;37.588;-122.048;2022-09-09T05:53:26;26.80;70.50
49222;DHT22;35047;37.588;-122.048;2022-09-09T05:56:03;26.80;70.50
49222;DHT22;35047;37.588;-122.048;2022-09-09T05:58:30;26.70;70.50
49222;DHT22;35047;37.588;-122.048;2022-09-09T06:01:03;26.80;70.60
49222;DHT22;35047;37.588;-122.048;2022-09-09T06:03:30;26.70;70.60
49222;DHT22;35047;37.588;-122.048;2022-09-09T06:05:58;26.70;70.80
49222;DHT22;35047;37.588;-122.048;2022-09-09T06:08:24;26.60;71.00
49222;DHT22;35047;37.588;-122.048;2022-09-09T06:10:51;26.60;71.10
49222;DHT22;35047;37.588;-122.048;2022-09-09T06:13:17;26.50;71.70
49222;DHT22;35047;37.588;-122.048;2022-09-09T06:15:52;26.50;71.80
49222;DHT22;35047;37.588;-122.048;2022-09-09T06:18:19;26.40;71.70
49222;DHT22;35047;37.588;-122.048;2022-09-09T06:20:58;26.40;71.90
49222;DHT22;35047;37.588;-122.048;2022-09-09T06:23:26;26.30;71.90
49222;DHT22;35047;37.588;-122.048;2022-09-09T06:26:06;26.20;72.00
49222;DHT22;35047;37.588;-122.048;2022-09-09T06:28:33;26.10;72.20
49222;DHT22;35047;37.588;-122.048;2022-09-09T06:31:00;26.10;72.40
49222;DHT22;35047;37.588;-122.048;2022-09-09T06:33:30;26.10;72.70
49222;DHT22;35047;37.588;-122.048;2022-09-09T06:35:56;26.00;73.20
49222;DHT22;35047;37.588;-122.048;2022-09-09T06:38:24;25.90;73.30
49222;DHT22;35047;37.588;-122.048;2022-09-09T06:40:54;25.90;73.60
49222;DHT22;35047;37.588;-122.048;2022-09-09T06:43:21;25.80;73.80
49222;DHT22;35047;37.588;-122.048;2022-09-09T06:45:58;25.70;74.10
49222;DHT22;35047;37.588;-122.048;2022-09-09T06:48:26;25.70;74.30
49222;DHT22;35047;37.588;-122.048;2022-09-09T06:51:05;25.60;74.50
49222;DHT22;35047;37.588;-122.048;2022-09-09T06:53:33;25.60;74.80
49222;DHT22;35047;37.588;-122.048;2022-09-09T06:58:36;25.50;74.90
49222;DHT22;35047;37.588;-122.048;2022-09-09T07:01:05;25.50;75.20
49222;DHT22;35047;37.588;-122.048;2022-09-09T07:03:32;25.40;74.70
49222;DHT22;35047;37.588;-122.048;2022-09-09T07:05:59;25.30;74.80
49222;DHT22;35047;37.588;-122.048;2022-09-09T07:08:26;25.30;74.70
49222;DHT22;35047;37.588;-122.048;2022-09-09T07:10:53;25.30;74.60
49222;DHT22;35047;37.588;-122.048;2022-09-09T07:13:26;25.30;74.70
49222;DHT22;35047;37.588;-122.048;2022-09-09T07:15:52;25.20;74.80
49222;DHT22;35047;37.588;-122.048;2022-09-09T07:18:19;25.20;74.90
49222;DHT22;35047;37.588;-122.048;2022-09-09T07:20:52;25.20;75.00
49222;DHT22;35047;37.588;-122.048;2022-09-09T07:23:20;25.10;74.90
49222;DHT22;35047;37.588;-122.048;2022-09-09T07:25:47;25.10;74.40
49222;DHT22;35047;37.588;-122.048;2022-09-09T07:28:14;25.10;74.80
49222;DHT22;35047;37.588;-122.048;2022-09-09T07:30:41;25.00;74.50
49222;DHT22;35047;37.588;-122.048;2022-09-09T07:33:08;24.90;74.50
49222;DHT22;35047;37.588;-122.048;2022-09-09T07:35:35;24.80;73.90
49222;DHT22;35047;37.588;-122.048;2022-09-09T07:38:02;24.80;74.50
49222;DHT22;35047;37.588;-122.048;2022-09-09T07:40:32;24.80;74.40
49222;DHT22;35047;37.588;-122.048;2022-09-09T07:42:59;24.70;73.40
49222;DHT22;35047;37.588;-122.048;2022-09-09T07:45:26;24.60;73.80
49222;DHT22;35047;37.588;-122.048;2022-09-09T07:47:54;24.60;73.80
49222;DHT22;35047;37.588;-122.048;2022-09-09T07:50:22;24.50;73.10
49222;DHT22;35047;37.588;-122.048;2022-09-09T07:52:50;24.50;73.10
49222;DHT22;35047;37.588;-122.048;2022-09-09T07:55:16;24.40;72.60
49222;DHT22;35047;37.588;-122.048;2022-09-09T07:57:43;24.30;72.70
49222;DHT22;35047;37.588;-122.048;2022-09-09T08:00:09;24.20;73.10
49222;DHT22;35047;37.588;-122.048;2022-09-09T08:02:36;24.20;73.00
49222;DHT22;35047;37.588;-122.048;2022-09-09T08:05:02;24.20;73.40
49222;DHT22;35047;37.588;-122.048;2022-09-09T08:07:31;24.10;73.40
49222;DHT22;35047;37.588;-122.048;2022-09-09T08:09:57;24.20;73.10
49222;DHT22;35047;37.588;-122.048;2022-09-09T08:12:25;24.20;73.00
49222;DHT22;35047;37.588;-122.048;2022-09-09T08:14:51;24.10;72.40
49222;DHT22;35047;37.588;-122.048;2022-09-09T08:17:17;24.10;72.80
49222;DHT22;35047;37.588;-122.048;2022-09-09T08:19:44;24.00;72.30
49222;DHT22;35047;37.588;-122.048;2022-09-09T08:22:10;23.90;72.20
49222;DHT22;35047;37.588;-122.048;2022-09-09T08:24:36;23.90;72.40
49222;DHT22;35047;37.588;-122.048;2022-09-09T08:27:03;23.90;72.50
49222;DHT22;35047;37.588;-122.048;2022-09-09T08:29:30;23.80;72.30
49222;DHT22;35047;37.588;-122.048;2022-09-09T08:31:57;23.70;72.30
49222;DHT22;35047;37.588;-122.048;2022-09-09T08:34:23;23.70;72.50
49222;DHT22;35047;37.588;-122.048;2022-09-09T08:36:52;23.70;72.80
49222;DHT22;35047;37.588;-122.048;2022-09-09T08:39:20;23.60;73.00
49222;DHT22;35047;37.588;-122.048;2022-09-09T08:47:01;23.50;72.90
49222;DHT22;35047;37.588;-122.048;2022-09-09T08:49:42;23.40;72.80
49222;DHT22;35047;37.588;-122.048;2022-09-09T08:52:37;23.40;73.10
49222;DHT22;35047;37.588;-122.048;2022-09-09T08:55:48;23.40;73.10
49222;DHT22;35047;37.588;-122.048;2022-09-09T08:57:51;23.30;72.60
49222;DHT22;35047;37.588;-122.048;2022-09-09T09:00:18;23.30;72.50
49222;DHT22;35047;37.588;-122.048;2022-09-09T09:05:42;23.20;72.40
49222;DHT22;35047;37.588;-122.048;2022-09-09T09:08:30;23.20;72.00
49222;DHT22;35047;37.588;-122.048;2022-09-09T09:10:59;23.20;72.40
49222;DHT22;35047;37.588;-122.048;2022-09-09T09:13:32;23.10;72.10
49222;DHT22;35047;37.588;-122.048;2022-09-09T09:18:54;22.90;72.40
49222;DHT22;35047;37.588;-122.048;2022-09-09T09:23:56;22.80;72.50
49222;DHT22;35047;37.588;-122.048;2022-09-09T09:26:30;22.80;72.80
49222;DHT22;35047;37.588;-122.048;2022-09-09T09:28:57;22.80;72.80
49222;DHT22;35047;37.588;-122.048;2022-09-09T09:31:24;22.80;73.20
49222;DHT22;35047;37.588;-122.048;2022-09-09T09:33:53;22.80;73.40
49222;DHT22;35047;37.588;-122.048;2022-09-09T09:36:20;22.80;73.10
49222;DHT22;35047;37.588;-122.048;2022-09-09T09:38:53;22.70;73.30
49222;DHT22;35047;37.588;-122.048;2022-09-09T09:41:40;22.60;73.10
49222;DHT22;35047;37.588;-122.048;2022-09-09T09:44:27;22.60;73.80
49222;DHT22;35047;37.588;-122.048;2022-09-09T09:47:16;22.60;73.70
49222;DHT22;35047;37.588;-122.048;2022-09-09T09:49:53;22.40;73.80
49222;DHT22;35047;37.588;-122.048;2022-09-09T09:52:24;22.40;74.10
49222;DHT22;35047;37.588;-122.048;2022-09-09T09:54:52;22.40;74.40
49222;DHT22;35047;37.588;-122.048;2022-09-09T09:57:22;22.30;74.70
49222;DHT22;35047;37.588;-122.048;2022-09-09T09:59:59;22.30;75.40
49222;DHT22;35047;37.588;-122.048;2022-09-09T10:02:31;22.30;75.80
49222;DHT22;35047;37.588;-122.048;2022-09-09T10:05:25;22.30;76.20
49222;DHT22;35047;37.588;-122.048;2022-09-09T10:08:04;22.30;76.70
49222;DHT22;35047;37.588;-122.048;2022-09-09T10:13:34;22.20;77.30
49222;DHT22;35047;37.588;-122.048;2022-09-09T10:18:52;22.00;77.50
49222;DHT22;35047;37.588;-122.048;2022-09-09T10:21:46;22.00;77.70
49222;DHT22;35047;37.588;-122.048;2022-09-09T10:24:34;21.90;77.50
49222;DHT22;35047;37.588;-122.048;2022-09-09T10:40:14;21.80;78.40
49222;DHT22;35047;37.588;-122.048;2022-09-09T10:42:40;21.70;78.40
49222;DHT22;35047;37.588;-122.048;2022-09-09T10:45:18;21.80;78.60
49222;DHT22;35047;37.588;-122.048;2022-09-09T10:55:35;21.70;78.70
49222;DHT22;35047;37.588;-122.048;2022-09-09T10:58:03;21.60;78.70
49222;DHT22;35047;37.588;-122.048;2022-09-09T11:03:02;21.60;78.80
49222;DHT22;35047;37.588;-122.048;2022-09-09T11:05:36;21.60;78.70
49222;DHT22;35047;37.588;-122.048;2022-09-09T11:08:10;21.50;78.40
49222;DHT22;35047;37.588;-122.048;2022-09-09T11:10:40;21.50;78.60
49222;DHT22;35047;37.588;-122.048;2022-09-09T11:13:17;21.30;78.50
49222;DHT22;35047;37.588;-122.048;2022-09-09T11:15:46;21.40;79.10
49222;DHT22;35047;37.588;-122.048;2022-09-09T11:18:19;21.40;79.60
49222;DHT22;35047;37.588;-122.048;2022-09-09T11:20:54;21.30;79.40
49222;DHT22;35047;37.588;-122.048;2022-09-09T11:23:25;21.40;79.50
49222;DHT22;35047;37.588;-122.048;2022-09-09T11:25:55;21.30;79.30
49222;DHT22;35047;37.588;-122.048;2022-09-09T11:41:04;21.20;79.90
49222;DHT22;35047;37.588;-122.048;2022-09-09T11:46:00;21.10;80.00
49222;DHT22;35047;37.588;-122.048;2022-09-09T11:48:38;21.10;80.00
49222;DHT22;35047;37.588;-122.048;2022-09-09T11:53:33;21.00;79.80
49222;DHT22;35047;37.588;-122.048;2022-09-09T11:56:04;20.90;80.40
49222;DHT22;35047;37.588;-122.048;2022-09-09T11:58:34;21.00;80.60
49222;DHT22;35047;37.588;-122.048;2022-09-09T12:01:12;20.90;80.50
49222;DHT22;35047;37.588;-122.048;2022-09-09T12:06:30;20.90;80.90
49222;DHT22;35047;37.588;-122.048;2022-09-09T12:11:43;20.80;80.80
49222;DHT22;35047;37.588;-122.048;2022-09-09T12:14:19;20.80;81.00
49222;DHT22;35047;37.588;-122.048;2022-09-09T12:16:46;20.80;81.20
49222;DHT22;35047;37.588;-122.048;2022-09-09T12:19:18;20.70;81.30
49222;DHT22;35047;37.588;-122.048;2022-09-09T12:21:48;20.70;81.40
49222;DHT22;35047;37.588;-122.048;2022-09-09T12:24:18;20.70;81.40
49222;DHT22;35047;37.588;-122.048;2022-09-09T12:26:52;20.70;81.50
49222;DHT22;35047;37.588;-122.048;2022-09-09T12:40:06;20.50;81.80
49222;DHT22;35047;37.588;-122.048;2022-09-09T12:42:32;20.50;82.10
49222;DHT22;35047;37.588;-122.048;2022-09-09T12:45:00;20.50;82.10
49222;DHT22;35047;37.588;-122.048;2022-09-09T12:47:30;20.50;82.20
49222;DHT22;35047;37.588;-122.048;2022-09-09T12:49:59;20.50;82.30
49222;DHT22;35047;37.588;-122.048;2022-09-09T12:52:35;20.40;82.30
49222;DHT22;35047;37.588;-122.048;2022-09-09T12:55:04;20.40;83.00
49222;DHT22;35047;37.588;-122.048;2022-09-09T12:57:34;20.40;82.60
49222;DHT22;35047;37.588;-122.048;2022-09-09T13:00:06;20.40;82.60
49222;DHT22;35047;37.588;-122.048;2022-09-09T13:02:35;20.30;82.40
49222;DHT22;35047;37.588;-122.048;2022-09-09T13:05:18;20.30;82.40
49222;DHT22;35047;37.588;-122.048;2022-09-09T13:07:44;20.30;82.60
49222;DHT22;35047;37.588;-122.048;2022-09-09T13:10:11;20.20;82.90
49222;DHT22;35047;37.588;-122.048;2022-09-09T13:12:38;20.20;82.90
49222;DHT22;35047;37.588;-122.048;2022-09-09T13:15:05;20.20;83.00
49222;DHT22;35047;37.588;-122.048;2022-09-09T13:17:38;20.20;82.90
49222;DHT22;35047;37.588;-122.048;2022-09-09T13:20:14;20.10;82.80
49222;DHT22;35047;37.588;-122.048;2022-09-09T13:22:41;20.10;82.90
49222;DHT22;35047;37.588;-122.048;2022-09-09T13:27:37;20.10;83.40
49222;DHT22;35047;37.588;-122.048;2022-09-09T13:30:20;20.10;83.60
49222;DHT22;35047;37.588;-122.048;2022-09-09T13:32:59;20.00;83.60
49222;DHT22;35047;37.588;-122.048;2022-09-09T13:35:26;20.00;83.70
49222;DHT22;35047;37.588;-122.048;2022-09-09T13:37:53;20.00;83.50
49222;DHT22;35047;37.588;-122.048;2022-09-09T13:40:20;20.00;83.30
49222;DHT22;35047;37.588;-122.048;2022-09-09T13:42:47;19.90;83.40
49222;DHT22;35047;37.588;-122.048;2022-09-09T13:45:21;19.90;83.60
49222;DHT22;35047;37.588;-122.048;2022-09-09T13:47:47;19.90;83.80
49222;DHT22;35047;37.588;-122.048;2022-09-09T13:50:30;19.90;83.70
49222;DHT22;35047;37.588;-122.048;2022-09-09T13:52:57;19.90;83.50
49222;DHT22;35047;37.588;-122.048;2022-09-09T13:55:25;19.80;83.90
49222;DHT22;35047;37.588;-122.048;2022-09-09T13:57:56;19.80;84.10
49222;DHT22;35047;37.588;-122.048;2022-09-09T14:00:23;19.80;84.40
49222;DHT22;35047;37.588;-122.048;2022-09-09T14:02:50;19.80;84.60
49222;DHT22;35047;37.588;-122.048;2022-09-09T14:05:17;19.80;84.80
49222;DHT22;35047;37.588;-122.048;2022-09-09T14:07:44;19.80;85.00
49222;DHT22;35047;37.588;-122.048;2022-09-09T14:10:11;19.80;84.90
49222;DHT22;35047;37.588;-122.048;2022-09-09T14:12:37;19.70;85.10
49222;DHT22;35047;37.588;-122.048;2022-09-09T14:15:05;19.80;85.40
49222;DHT22;35047;37.588;-122.048;2022-09-09T14:17:33;19.80;85.60
49222;DHT22;35047;37.588;-122.048;2022-09-09T14:20:05;19.80;85.80
49222;DHT22;35047;37.588;-122.048;2022-09-09T14:22:35;19.80;86.00
49222;DHT22;35047;37.588;-122.048;2022-09-09T14:25:02;19.80;86.20
49222;DHT22;35047;37.588;-122.048;2022-09-09T14:27:28;19.80;86.30
49222;DHT22;35047;37.588;-122.048;2022-09-09T14:29:55;19.80;86.50
49222;DHT22;35047;37.588;-122.048;2022-09-09T14:32:23;19.80;86.70
49222;DHT22;35047;37.588;-122.048;2022-09-09T14:34:49;19.80;86.90
49222;DHT22;35047;37.588;-122.048;2022-09-09T14:37:16;19.80;86.80
49222;DHT22;35047;37.588;-122.048;2022-09-09T14:39:43;19.80;86.80
49222;DHT22;35047;37.588;-122.048;2022-09-09T14:42:10;19.90;86.90
49222;DHT22;35047;37.588;-122.048;2022-09-09T14:44:37;19.90;86.80
49222;DHT22;35047;37.588;-122.048;2022-09-09T14:47:06;19.90;86.80
49222;DHT22;35047;37.588;-122.048;2022-09-09T14:49:36;19.90;86.80
49222;DHT22;35047;37.588;-122.048;2022-09-09T14:52:03;20.00;86.80
49222;DHT22;35047;37.588;-122.048;2022-09-09T14:54:30;20.00;86.60
49222;DHT22;35047;37.588;-122.048;2022-09-09T14:56:58;20.00;86.40
49222;DHT22;35047;37.588;-122.048;2022-09-09T14:59:24;20.10;86.60
49222;DHT22;35047;37.588;-122.048;2022-09-09T15:01:50;20.10;86.40
49222;DHT22;35047;37.588;-122.048;2022-09-09T15:04:18;20.20;86.40
49222;DHT22;35047;37.588;-122.048;2022-09-09T15:06:45;20.20;86.30
49222;DHT22;35047;37.588;-122.048;2022-09-09T15:09:14;20.30;86.40
49222;DHT22;35047;37.588;-122.048;2022-09-09T15:11:40;20.30;86.20
49222;DHT22;35047;37.588;-122.048;2022-09-09T15:14:07;20.40;86.00
49222;DHT22;35047;37.588;-122.048;2022-09-09T15:16:34;20.40;85.60
49222;DHT22;35047;37.588;-122.048;2022-09-09T15:19:01;20.40;85.70
49222;DHT22;35047;37.588;-122.048;2022-09-09T15:21:28;20.50;85.50
49222;DHT22;35047;37.588;-122.048;2022-09-09T15:23:55;20.50;85.80
49222;DHT22;35047;37.588;-122.048;2022-09-09T15:26:22;20.50;84.50
49222;DHT22;35047;37.588;-122.048;2022-09-09T15:28:48;20.50;84.70
49222;DHT22;35047;37.588;-122.048;2022-09-09T15:31:17;20.50;85.00
49222;DHT22;35047;37.588;-122.048;2022-09-09T15:33:48;20.60;85.00
49222;DHT22;35047;37.588;-122.048;2022-09-09T15:36:22;20.70;85.00
49222;DHT22;35047;37.588;-122.048;2022-09-09T15:38:49;20.70;85.20
49222;DHT22;35047;37.588;-122.048;2022-09-09T15:41:15;20.80;84.30
49222;DHT22;35047;37.588;-122.048;2022-09-09T15:43:48;20.80;84.10
49222;DHT22;35047;37.588;-122.048;2022-09-09T15:49:12;20.80;83.70
49222;DHT22;35047;37.588;-122.048;2022-09-09T15:51:39;20.90;83.90
49222;DHT22;35047;37.588;-122.048;2022-09-09T15:54:05;21.00;83.50
49222;DHT22;35047;37.588;-122.048;2022-09-09T15:56:31;21.00;82.70
49222;DHT22;35047;37.588;-122.048;2022-09-09T15:58:59;21.10;83.00
49222;DHT22;35047;37.588;-122.048;2022-09-09T16:01:26;21.10;82.40
49222;DHT22;35047;37.588;-122.048;2022-09-09T16:03:53;21.20;82.80
49222;DHT22;35047;37.588;-122.048;2022-09-09T16:06:20;21.20;82.50
49222;DHT22;35047;37.588;-122.048;2022-09-09T16:08:48;21.30;81.90
49222;DHT22;35047;37.588;-122.048;2022-09-09T16:11:21;21.40;82.30
49222;DHT22;35047;37.588;-122.048;2022-09-09T16:13:49;21.40;81.50
49222;DHT22;35047;37.588;-122.048;2022-09-09T16:16:16;21.50;81.10
49222;DHT22;35047;37.588;-122.048;2022-09-09T16:18:44;21.60;81.00
49222;DHT22;35047;37.588;-122.048;2022-09-09T16:21:15;21.70;82.00
49222;DHT22;35047;37.588;-122.048;2022-09-09T16:23:41;21.80;81.60
49222;DHT22;35047;37.588;-122.048;2022-09-09T16:26:14;21.90;81.90
49222;DHT22;35047;37.588;-122.048;2022-09-09T16:28:40;22.00;80.10
49222;DHT22;35047;37.588;-122.048;2022-09-09T16:31:09;22.20;81.20
49222;DHT22;35047;37.588;-122.048;2022-09-09T16:33:39;22.30;81.40
49222;DHT22;35047;37.588;-122.048;2022-09-09T16:36:10;22.50;81.90
49222;DHT22;35047;37.588;-122.048;2022-09-09T16:38:36;22.70;79.60
49222;DHT22;35047;37.588;-122.048;2022-09-09T16:41:04;22.90;79.50
49222;DHT22;35047;37.588;-122.048;2022-09-09T16:43:33;23.10;80.80
49222;DHT22;35047;37.588;-122.048;2022-09-09T16:46:01;23.40;78.30
49222;DHT22;35047;37.588;-122.048;2022-09-09T16:48:32;23.70;77.90
49222;DHT22;35047;37.588;-122.048;2022-09-09T16:51:01;23.90;77.00
49222;DHT22;35047;37.588;-122.048;2022-09-09T16:53:29;24.10;75.90
49222;DHT22;35047;37.588;-122.048;2022-09-09T16:55:55;24.40;75.10
49222;DHT22;35047;37.588;-122.048;2022-09-09T16:58:22;24.70;73.90
49222;DHT22;35047;37.588;-122.048;2022-09-09T17:00:48;24.90;71.10
49222;DHT22;35047;37.588;-122.048;2022-09-09T17:03:16;25.00;70.80
49222;DHT22;35047;37.588;-122.048;2022-09-09T17:05:42;25.20;70.10